createdAt,value
2022-11-06T00:00:43.747Z,100281.19
2022-11-06T00:03:10.953Z,100287.16
2022-11-06T00:06:00.693Z,100290.69
2022-11-06T00:08:36.702Z,100286.06
2022-11-06T00:11:14.935Z,100283.19
2022-11-06T00:13:42.777Z,100285.47
2022-11-06T00:16:11.381Z,100275.47
2022-11-06T00:18:38.737Z,100271.00
2022-11-06T00:21:17.062Z,100272.03
2022-11-06T00:23:44.194Z,100277.56
2022-11-06T00:26:13.858Z,100272.69
2022-11-06T00:28:40.587Z,100271.75
2022-11-06T00:31:08.864Z,100274.16
2022-11-06T00:33:35.881Z,100268.19
2022-11-06T00:36:03.950Z,100263.31
2022-11-06T00:38:30.372Z,100268.28
2022-11-06T00:40:56.794Z,100265.44
2022-11-06T00:43:23.226Z,100262.34
2022-11-06T00:45:49.641Z,100260.09
2022-11-06T00:48:16.174Z,100266.59
2022-11-06T00:50:42.722Z,100266.34
2022-11-06T00:53:09.328Z,100272.75
2022-11-06T00:55:35.735Z,100281.03
2022-11-06T00:58:02.241Z,100266.47
2022-11-06T01:00:28.692Z,100275.16
2022-11-06T01:02:56.247Z,100274.53
2022-11-06T01:05:23.929Z,100268.56
2022-11-06T01:07:50.543Z,100256.81
2022-11-06T01:10:17.021Z,100265.97
2022-11-06T01:12:43.464Z,100271.28
2022-11-06T01:15:10.226Z,100279.13
2022-11-06T01:17:36.901Z,100259.41
2022-11-06T01:20:04.503Z,100274.19
2022-11-06T01:22:31.090Z,100270.53
2022-11-06T01:24:57.627Z,100264.03
2022-11-06T01:27:26.775Z,100276.09
2022-11-06T01:29:54.435Z,100266.38
2022-11-06T01:32:20.974Z,100264.97
2022-11-06T01:34:49.747Z,100262.13
2022-11-06T01:37:16.174Z,100271.25
2022-11-06T01:39:42.792Z,100260.50
2022-11-06T01:42:13.494Z,100258.91
2022-11-06T01:44:43.231Z,100257.19
2022-11-06T01:47:22.329Z,100254.16
2022-11-06T01:49:50.450Z,100246.72
2022-11-06T01:52:17.675Z,100252.13
2022-11-06T01:54:46.596Z,100258.09
2022-11-06T01:57:13.159Z,100249.25
2022-11-06T01:59:42.990Z,100246.47
2022-11-06T02:02:09.636Z,100249.22
2022-11-06T02:04:38.983Z,100247.03
2022-11-06T02:07:05.924Z,100254.25
2022-11-06T02:09:34.357Z,100248.28
2022-11-06T02:12:33.588Z,100241.44
2022-11-06T02:15:35.824Z,100236.38
2022-11-06T02:18:37.954Z,100227.09
2022-11-06T02:21:26.070Z,100222.53
2022-11-06T02:24:30.607Z,100229.97
2022-11-06T02:27:03.133Z,100221.44
2022-11-06T02:29:41.814Z,100221.13
2022-11-06T02:32:12.167Z,100226.66
2022-11-06T02:34:39.907Z,100225.78
2022-11-06T02:37:11.503Z,100233.38
2022-11-06T02:39:41.163Z,100234.44
2022-11-06T02:42:09.277Z,100226.97
2022-11-06T02:44:36.962Z,100222.41
2022-11-06T02:47:08.024Z,100227.41
2022-11-06T02:49:45.275Z,100216.03
2022-11-06T02:52:16.037Z,100223.13
2022-11-06T02:54:46.510Z,100223.66
2022-11-06T02:57:15.773Z,100224.91
2022-11-06T02:59:50.348Z,100221.50
2022-11-06T03:02:40.679Z,100226.06
2022-11-06T03:05:12.922Z,100225.09
2022-11-06T03:07:48.672Z,100219.69
2022-11-06T03:10:15.490Z,100218.91
2022-11-06T03:12:54.804Z,100216.44
2022-11-06T03:15:30.836Z,100212.38
2022-11-06T03:18:09.512Z,100216.28
2022-11-06T03:21:20.082Z,100227.00
2022-11-06T03:23:53.786Z,100225.97
2022-11-06T03:26:23.792Z,100223.69
2022-11-06T03:28:56.328Z,100228.38
2022-11-06T03:31:29.301Z,100221.47
2022-11-06T03:33:59.919Z,100219.78
2022-11-06T03:36:50.594Z,100220.53
2022-11-06T03:39:21.872Z,100221.09
2022-11-06T03:41:52.747Z,100219.69
2022-11-06T03:44:22.474Z,100212.47
2022-11-06T03:46:54.062Z,100210.19
2022-11-06T03:49:29.083Z,100209.63
2022-11-06T03:52:03.240Z,100214.38
2022-11-06T03:54:34.274Z,100206.41
2022-11-06T03:57:07.999Z,100213.53
2022-11-06T03:59:40.070Z,100211.59
2022-11-06T04:02:07.242Z,100216.56
2022-11-06T04:04:46.296Z,100212.13
2022-11-06T04:07:15.228Z,100218.38
2022-11-06T04:10:03.423Z,100215.63
2022-11-06T04:12:49.609Z,100211.59
2022-11-06T04:15:18.298Z,100208.50
2022-11-06T04:17:44.841Z,100206.03
2022-11-06T04:20:36.213Z,100207.34
2022-11-06T04:23:14.218Z,100206.59
2022-11-06T04:26:16.454Z,100207.47
2022-11-06T04:28:57.797Z,100206.38
2022-11-06T04:31:37.853Z,100211.03
2022-11-06T04:34:15.087Z,100213.03
2022-11-06T04:37:01.708Z,100205.63
2022-11-06T04:39:34.366Z,100204.19
2022-11-06T04:42:14.473Z,100201.75
2022-11-06T04:44:48.824Z,100202.78
2022-11-06T04:47:22.567Z,100194.91
2022-11-06T04:49:50.904Z,100195.97
2022-11-06T04:52:19.701Z,100190.88
2022-11-06T04:54:47.272Z,100185.75
2022-11-06T04:57:13.909Z,100184.38
2022-11-06T04:59:40.370Z,100191.28
2022-11-06T05:02:07.052Z,100186.25
2022-11-06T05:04:33.816Z,100182.66
2022-11-06T05:07:00.443Z,100181.91
2022-11-06T05:09:26.901Z,100178.78
2022-11-06T05:11:53.420Z,100182.75
2022-11-06T05:14:20.075Z,100176.97
2022-11-06T05:16:46.546Z,100169.69
2022-11-06T05:19:13.002Z,100165.78
2022-11-06T05:21:58.240Z,100167.31
2022-11-06T05:24:24.706Z,100172.91
2022-11-06T05:26:56.096Z,100167.25
2022-11-06T05:29:25.481Z,100172.28
2022-11-06T05:31:51.939Z,100168.69
2022-11-06T05:34:18.395Z,100166.84
2022-11-06T05:36:44.834Z,100164.75
2022-11-06T05:39:11.262Z,100172.06
2022-11-06T05:41:37.767Z,100171.31
2022-11-06T05:44:04.460Z,100174.63
2022-11-06T05:46:49.083Z,100174.44
2022-11-06T05:49:18.147Z,100170.44
2022-11-06T05:51:44.625Z,100174.19
2022-11-06T05:54:11.085Z,100175.88
2022-11-06T05:56:38.065Z,100184.28
2022-11-06T05:59:04.844Z,100184.88
2022-11-06T06:01:31.495Z,100174.28
2022-11-06T06:03:58.283Z,100170.88
2022-11-06T06:06:24.931Z,100174.09
2022-11-06T06:08:51.350Z,100176.44
2022-11-06T06:11:17.864Z,100175.97
2022-11-06T06:13:44.362Z,100181.28
2022-11-06T06:16:10.888Z,100189.44
2022-11-06T06:18:37.323Z,100189.16
2022-11-06T06:21:04.182Z,100179.47
2022-11-06T06:23:30.613Z,100188.28
2022-11-06T06:25:57.489Z,100185.19
2022-11-06T06:28:23.938Z,100182.91
2022-11-06T06:30:50.406Z,100187.53
2022-11-06T06:33:17.680Z,100192.56
2022-11-06T06:35:44.084Z,100196.53
2022-11-06T06:38:11.016Z,100189.78
2022-11-06T06:40:37.752Z,100197.84
2022-11-06T06:43:04.227Z,100191.69
2022-11-06T06:45:31.640Z,100179.41
2022-11-06T06:48:05.433Z,100177.44
2022-11-06T06:50:32.358Z,100175.16
2022-11-06T06:52:59.014Z,100180.72
2022-11-06T06:55:25.837Z,100183.66
2022-11-06T06:57:59.184Z,100191.84
2022-11-06T07:00:26.381Z,100201.81
2022-11-06T07:02:53.012Z,100206.19
2022-11-06T07:05:19.620Z,100220.28
2022-11-06T07:07:46.474Z,100220.63
2022-11-06T07:10:13.274Z,100221.81
2022-11-06T07:12:40.154Z,100210.81
2022-11-06T07:15:08.027Z,100207.22
2022-11-06T07:17:34.914Z,100200.25
2022-11-06T07:20:02.152Z,100204.00
2022-11-06T07:22:35.501Z,100197.00
2022-11-06T07:25:04.243Z,100200.34
2022-11-06T07:27:30.703Z,100220.75
2022-11-06T07:29:57.325Z,100223.59
2022-11-06T07:32:23.801Z,100213.88
2022-11-06T07:34:50.268Z,100251.44
2022-11-06T07:37:16.816Z,100254.88
2022-11-06T07:39:43.515Z,100267.09
2022-11-06T07:42:10.137Z,100260.56
2022-11-06T07:44:36.632Z,100285.41
2022-11-06T07:47:03.103Z,100291.47
2022-11-06T07:49:29.529Z,100278.38
2022-11-06T07:51:55.984Z,100275.53
2022-11-06T07:54:22.403Z,100281.06
2022-11-06T07:56:48.831Z,100267.28
2022-11-06T07:59:15.275Z,100279.59
2022-11-06T08:01:42.006Z,100276.00
2022-11-06T08:04:08.595Z,100279.25
2022-11-06T08:06:35.068Z,100279.22
2022-11-06T08:09:06.045Z,100284.41
2022-11-06T08:11:32.589Z,100271.22
2022-11-06T08:14:02.130Z,100270.25
2022-11-06T08:16:28.835Z,100266.78
2022-11-06T08:18:55.624Z,100269.56
2022-11-06T08:21:22.079Z,100257.41
2022-11-06T08:23:48.522Z,100252.63
2022-11-06T08:26:15.054Z,100255.31
2022-11-06T08:28:41.618Z,100248.63
2022-11-06T08:31:09.046Z,100250.50
2022-11-06T08:33:36.927Z,100249.72
2022-11-06T08:36:05.285Z,100242.22
2022-11-06T08:38:31.855Z,100249.47
2022-11-06T08:40:58.306Z,100246.47
2022-11-06T08:43:26.549Z,100231.88
2022-11-06T08:45:53.474Z,100233.00
2022-11-06T08:48:19.975Z,100233.88
2022-11-06T08:50:46.525Z,100248.56
2022-11-06T08:53:13.314Z,100227.34
2022-11-06T08:55:40.071Z,100230.56
2022-11-06T08:58:07.363Z,100227.81
2022-11-06T09:00:34.003Z,100235.47
2022-11-06T09:03:02.178Z,100231.13
2022-11-06T09:05:29.627Z,100216.69
2022-11-06T09:07:59.768Z,100225.06
2022-11-06T09:10:27.204Z,100211.19
2022-11-06T09:12:53.754Z,100221.50
2022-11-06T09:15:20.238Z,100216.50
2022-11-06T09:17:49.441Z,100220.16
2022-11-06T09:20:18.086Z,100214.63
2022-11-06T09:22:45.529Z,100216.19
2022-11-06T09:25:12.349Z,100203.38
2022-11-06T09:27:54.472Z,100204.19
2022-11-06T09:30:25.365Z,100191.13
2022-11-06T09:32:56.623Z,100202.28
2022-11-06T09:35:24.349Z,100201.66
2022-11-06T09:37:50.930Z,100197.38
2022-11-06T09:40:22.133Z,100193.63
2022-11-06T09:43:08.449Z,100194.19
2022-11-06T09:45:38.762Z,100198.06
2022-11-06T09:48:06.862Z,100199.81
2022-11-06T09:50:37.260Z,100194.47
2022-11-06T09:53:15.765Z,100196.44
2022-11-06T09:55:43.799Z,100178.69
2022-11-06T09:58:27.795Z,100188.00
2022-11-06T10:00:54.977Z,100176.03
2022-11-06T10:03:47.766Z,100171.00
2022-11-06T10:06:14.517Z,100165.31
2022-11-06T10:08:43.858Z,100157.84
2022-11-06T10:11:16.426Z,100144.03
2022-11-06T10:13:54.449Z,100145.31
2022-11-06T10:16:36.946Z,100143.75
2022-11-06T10:19:21.899Z,100135.53
2022-11-06T10:22:17.367Z,100139.72
2022-11-06T10:25:02.025Z,100127.16
2022-11-06T10:27:40.373Z,100131.06
2022-11-06T10:30:14.296Z,100123.53
2022-11-06T10:32:48.738Z,100113.03
2022-11-06T10:35:52.389Z,100119.13
2022-11-06T10:38:23.525Z,100123.41
2022-11-06T10:40:50.484Z,100113.56
2022-11-06T10:43:33.886Z,100111.50
2022-11-06T10:46:23.976Z,100106.28
2022-11-06T10:48:54.962Z,100098.53
2022-11-06T10:51:51.954Z,100098.94
2022-11-06T10:54:46.415Z,100090.97
2022-11-06T10:57:31.584Z,100091.81
2022-11-06T10:59:58.146Z,100086.59
2022-11-06T11:02:37.333Z,100086.84
2022-11-06T11:05:11.817Z,100081.59
2022-11-06T11:07:38.480Z,100076.66
2022-11-06T11:10:23.390Z,100067.38
2022-11-06T11:12:51.122Z,100068.69
2022-11-06T11:15:19.688Z,100058.75
2022-11-06T11:18:30.887Z,100060.44
2022-11-06T11:21:27.859Z,100051.53
2022-11-06T11:24:00.456Z,100036.63
2022-11-06T11:26:29.190Z,100033.06
2022-11-06T11:29:01.494Z,100033.63
2022-11-06T11:31:33.496Z,100037.78
2022-11-06T11:34:02.968Z,100024.19
2022-11-06T11:36:58.579Z,100018.91
2022-11-06T11:39:28.260Z,100011.59
2022-11-06T11:42:16.221Z,100004.59
2022-11-06T11:44:42.656Z,100000.09
2022-11-06T11:47:23.843Z,100003.38
2022-11-06T11:49:50.490Z,99995.91
2022-11-06T11:52:20.609Z,99992.69
2022-11-06T11:54:53.689Z,99991.59
2022-11-06T11:57:25.071Z,99990.84
2022-11-06T11:59:56.343Z,99980.94
2022-11-06T12:02:31.653Z,99986.69
2022-11-06T12:05:05.512Z,99974.41
2022-11-06T12:07:34.066Z,99972.53
2022-11-06T12:10:02.656Z,99966.19
2022-11-06T12:12:33.738Z,99968.63
2022-11-06T12:15:19.301Z,99968.50
2022-11-06T12:17:59.842Z,99962.16
2022-11-06T12:20:46.562Z,99956.16
2022-11-06T12:23:42.335Z,99948.59
2022-11-06T12:26:33.565Z,99952.25
2022-11-06T12:29:06.397Z,99937.75
2022-11-06T12:31:37.880Z,99939.44
2022-11-06T12:34:10.878Z,99947.34
2022-11-06T12:36:44.309Z,99945.50
2022-11-06T12:39:16.589Z,99948.28
2022-11-06T12:41:46.252Z,99934.28
2022-11-06T12:44:13.702Z,99930.91
2022-11-06T12:47:04.748Z,99924.34
2022-11-06T12:49:58.770Z,99921.53
2022-11-06T12:52:47.816Z,99921.13
2022-11-06T12:55:14.228Z,99914.25
2022-11-06T12:58:04.444Z,99914.22
2022-11-06T13:00:35.451Z,99916.84
2022-11-06T13:03:23.903Z,99911.69
2022-11-06T13:06:09.067Z,99912.72
2022-11-06T13:08:55.367Z,99906.78
2022-11-06T13:11:45.079Z,99903.25
2022-11-06T13:14:16.944Z,99904.25
2022-11-06T13:17:04.616Z,99902.06
2022-11-06T13:19:39.423Z,99896.75
2022-11-06T13:22:29.979Z,99895.09
2022-11-06T13:25:05.719Z,99886.75
2022-11-06T13:27:41.753Z,99883.59
2022-11-06T13:30:17.792Z,99881.88
2022-11-06T13:32:57.725Z,99884.97
2022-11-06T13:35:24.358Z,99888.53
2022-11-06T13:37:51.265Z,99877.34
2022-11-06T13:40:40.361Z,99874.00
2022-11-06T13:43:09.761Z,99873.28
2022-11-06T13:46:28.930Z,99865.84
2022-11-06T13:49:28.150Z,99871.59
2022-11-06T13:51:58.781Z,99875.69
2022-11-06T13:54:54.547Z,99873.72
2022-11-06T13:57:26.904Z,99863.44
2022-11-06T14:00:14.378Z,99866.16
2022-11-06T14:03:02.617Z,99857.72
2022-11-06T14:05:52.132Z,99869.25
2022-11-06T14:08:28.417Z,99866.19
2022-11-06T14:11:16.065Z,99862.19
2022-11-06T14:13:56.717Z,99856.50
2022-11-06T14:16:26.145Z,99851.53
2022-11-06T14:19:01.795Z,99847.06
2022-11-06T14:21:52.370Z,99859.16
2022-11-06T14:24:36.559Z,99849.59
2022-11-06T14:27:10.388Z,99854.34
2022-11-06T14:29:36.838Z,99853.53
2022-11-06T14:32:12.603Z,99847.88
2022-11-06T14:34:41.144Z,99849.63
2022-11-06T14:37:20.807Z,99854.53
2022-11-06T14:39:56.331Z,99848.59
2022-11-06T14:42:32.030Z,99853.19
2022-11-06T14:45:18.977Z,99852.00
2022-11-06T14:47:54.456Z,99849.00
2022-11-06T14:50:20.930Z,99850.09
2022-11-06T14:53:00.525Z,99849.34
2022-11-06T14:55:32.690Z,99840.41
2022-11-06T14:58:23.078Z,99831.03
2022-11-06T15:01:11.055Z,99828.09
2022-11-06T15:03:51.649Z,99820.25
2022-11-06T15:06:18.036Z,99818.13
2022-11-06T15:08:48.239Z,99817.91
2022-11-06T15:11:30.073Z,99810.84
2022-11-06T15:14:16.502Z,99821.19
2022-11-06T15:16:49.666Z,99809.28
2022-11-06T15:19:25.138Z,99806.94
2022-11-06T15:21:53.811Z,99820.44
2022-11-06T15:24:26.822Z,99812.41
2022-11-06T15:26:57.616Z,99803.22
2022-11-06T15:29:26.570Z,99800.91
2022-11-06T15:31:59.213Z,99801.34
2022-11-06T15:34:36.292Z,99803.75
2022-11-06T15:37:23.656Z,99801.78
2022-11-06T15:40:00.236Z,99802.69
2022-11-06T15:42:37.275Z,99790.75
2022-11-06T15:45:22.784Z,99795.28
2022-11-06T15:47:53.311Z,99803.75
2022-11-06T15:50:22.271Z,99794.84
2022-11-06T15:52:49.124Z,99792.59
2022-11-06T15:55:26.536Z,99796.28
2022-11-06T15:57:53.733Z,99796.84
2022-11-06T16:00:26.270Z,99788.41
2022-11-06T16:03:00.860Z,99791.66
2022-11-06T16:05:28.950Z,99792.78
2022-11-06T16:07:56.800Z,99782.75
2022-11-06T16:10:23.824Z,99778.00
2022-11-06T16:12:51.022Z,99779.53
2022-11-06T16:15:45.439Z,99775.03
2022-11-06T16:18:18.050Z,99769.28
2022-11-06T16:20:46.096Z,99770.13
2022-11-06T16:23:15.165Z,99765.03
2022-11-06T16:25:41.876Z,99764.34
2022-11-06T16:28:16.355Z,99758.28
2022-11-06T16:30:43.274Z,99758.56
2022-11-06T16:33:28.892Z,99746.16
2022-11-06T16:36:12.579Z,99757.13
2022-11-06T16:38:44.341Z,99756.88
2022-11-06T16:41:12.767Z,99754.34
2022-11-06T16:43:39.285Z,99744.75
2022-11-06T16:46:08.230Z,99748.28
2022-11-06T16:48:43.089Z,99745.72
2022-11-06T16:51:10.741Z,99745.47
2022-11-06T16:53:51.386Z,99741.94
2022-11-06T16:56:26.024Z,99734.47
2022-11-06T16:59:02.138Z,99732.66
2022-11-06T17:01:30.578Z,99721.94
2022-11-06T17:04:01.727Z,99725.31
2022-11-06T17:06:31.353Z,99713.47
2022-11-06T17:09:09.041Z,99715.16
2022-11-06T17:11:36.583Z,99715.44
2022-11-06T17:14:14.743Z,99714.47
2022-11-06T17:16:49.762Z,99708.41
2022-11-06T17:19:18.157Z,99712.75
2022-11-06T17:21:44.970Z,99716.44
2022-11-06T17:24:35.374Z,99706.84
2022-11-06T17:26:57.864Z,99706.72
2022-11-06T17:29:24.425Z,99715.75
2022-11-06T17:31:51.845Z,99721.66
2022-11-06T17:34:18.278Z,99721.66
2022-11-06T17:36:44.733Z,99721.66
2022-11-06T17:39:11.214Z,99724.75
2022-11-06T17:41:37.688Z,99720.78
2022-11-06T17:44:07.834Z,99721.22
2022-11-06T17:46:36.600Z,99720.25
2022-11-06T17:49:03.828Z,99719.53
2022-11-06T17:51:49.387Z,99719.38
2022-11-06T17:54:21.378Z,99717.69
2022-11-06T17:56:49.801Z,99713.63
2022-11-06T17:59:16.500Z,99712.34
2022-11-06T18:01:43.390Z,99716.13
2022-11-06T18:04:10.084Z,99700.81
2022-11-06T18:06:36.818Z,99699.28
2022-11-06T18:09:06.621Z,99701.09
2022-11-06T18:11:33.703Z,99705.75
2022-11-06T18:14:00.321Z,99699.41
2022-11-06T18:16:29.850Z,99694.91
2022-11-06T18:18:56.496Z,99695.31
2022-11-06T18:21:23.044Z,99701.66
2022-11-06T18:23:50.029Z,99693.22
2022-11-06T18:26:17.235Z,99688.97
2022-11-06T18:28:43.756Z,99679.00
2022-11-06T18:31:10.232Z,99673.50
2022-11-06T18:33:36.779Z,99669.13
2022-11-06T18:36:05.490Z,99662.78
2022-11-06T18:38:32.449Z,99669.66
2022-11-06T18:40:59.199Z,99661.66
2022-11-06T18:43:25.724Z,99653.78
2022-11-06T18:45:52.216Z,99638.72
2022-11-06T18:48:21.732Z,99644.06
2022-11-06T18:50:48.533Z,99636.31
2022-11-06T18:53:15.473Z,99632.63
2022-11-06T18:55:48.425Z,99638.56
2022-11-06T18:58:15.200Z,99634.19
2022-11-06T19:00:42.001Z,99630.94
2022-11-06T19:03:08.528Z,99635.03
2022-11-06T19:05:35.278Z,99633.22
2022-11-06T19:08:02.808Z,99640.91
2022-11-06T19:10:31.230Z,99647.56
2022-11-06T19:12:59.642Z,99640.91
2022-11-06T19:15:26.449Z,99640.91
2022-11-06T19:17:54.525Z,99640.06
2022-11-06T19:20:22.195Z,99640.50
2022-11-06T19:22:50.972Z,99648.94
2022-11-06T19:25:18.431Z,99648.09
2022-11-06T19:27:45.486Z,99643.59
2022-11-06T19:30:12.584Z,99655.00
2022-11-06T19:32:40.147Z,99652.34
2022-11-06T19:35:07.083Z,99651.22
2022-11-06T19:37:33.887Z,99651.06
2022-11-06T19:40:06.079Z,99644.31
2022-11-06T19:42:33.279Z,99645.00
2022-11-06T19:45:00.256Z,99638.94
2022-11-06T19:47:28.155Z,99640.63
2022-11-06T19:49:54.843Z,99635.72
2022-11-06T19:52:41.282Z,99628.09
2022-11-06T19:55:25.101Z,99628.53
2022-11-06T19:57:53.800Z,99635.84
2022-11-06T20:00:20.355Z,99627.53
2022-11-06T20:02:50.665Z,99632.19
2022-11-06T20:05:17.340Z,99632.75
2022-11-06T20:07:43.851Z,99632.28
2022-11-06T20:10:10.379Z,99627.78
2022-11-06T20:12:36.868Z,99623.03
2022-11-06T20:15:04.022Z,99626.78
2022-11-06T20:17:30.597Z,99619.88
2022-11-06T20:19:57.070Z,99633.69
2022-11-06T20:22:25.033Z,99625.03
2022-11-06T20:24:51.561Z,99624.16
2022-11-06T20:27:18.199Z,99631.78
2022-11-06T20:29:45.194Z,99630.50
2022-11-06T20:32:17.648Z,99622.28
2022-11-06T20:34:51.590Z,99635.25
2022-11-06T20:37:18.057Z,99636.53
2022-11-06T20:39:46.279Z,99640.59
2022-11-06T20:42:12.706Z,99642.16
2022-11-06T20:44:39.326Z,99635.50
2022-11-06T20:47:05.745Z,99639.03
2022-11-06T20:49:32.205Z,99629.81
2022-11-06T20:52:15.032Z,99636.03
2022-11-06T20:54:47.452Z,99633.50
2022-11-06T20:57:15.863Z,99626.06
2022-11-06T20:59:42.385Z,99630.28
2022-11-06T21:02:11.286Z,99628.69
2022-11-06T21:04:37.886Z,99627.84
2022-11-06T21:07:05.414Z,99624.16
2022-11-06T21:09:31.833Z,99627.63
2022-11-06T21:11:58.342Z,99625.31
2022-11-06T21:14:25.009Z,99625.00
2022-11-06T21:16:52.536Z,99626.69
2022-11-06T21:19:19.082Z,99630.06
2022-11-06T21:21:45.432Z,99629.09
2022-11-06T21:24:12.176Z,99622.47
2022-11-06T21:26:38.755Z,99621.88
2022-11-06T21:29:10.443Z,99617.66
2022-11-06T21:31:41.379Z,99616.81
2022-11-06T21:34:11.706Z,99611.47
2022-11-06T21:36:38.340Z,99618.81
2022-11-06T21:39:15.682Z,99607.78
2022-11-06T21:41:42.193Z,99611.47
2022-11-06T21:44:12.839Z,99597.91
2022-11-06T21:46:44.307Z,99597.81
2022-11-06T21:49:11.800Z,99589.13
2022-11-06T21:51:38.161Z,99595.44
2022-11-06T21:54:23.502Z,99596.31
2022-11-06T21:56:50.624Z,99595.44
2022-11-06T21:59:18.903Z,99603.03
2022-11-06T22:01:45.499Z,99596.16
2022-11-06T22:04:12.609Z,99590.94
2022-11-06T22:06:41.912Z,99585.25
2022-11-06T22:09:09.167Z,99588.09
2022-11-06T22:11:38.060Z,99582.34
2022-11-06T22:14:08.170Z,99579.88
2022-11-06T22:16:37.040Z,99572.41
2022-11-06T22:19:06.711Z,99578.06
2022-11-06T22:21:33.987Z,99566.34
2022-11-06T22:24:00.394Z,99566.44
2022-11-06T22:26:29.992Z,99565.44
2022-11-06T22:28:58.645Z,99537.66
2022-11-06T22:31:25.613Z,99529.00
2022-11-06T22:33:53.852Z,99522.03
2022-11-06T22:36:20.556Z,99504.94
2022-11-06T22:38:46.998Z,99504.34
2022-11-06T22:41:16.066Z,99504.03
2022-11-06T22:43:42.605Z,99509.13
2022-11-06T22:47:01.295Z,99528.38
2022-11-06T22:49:28.152Z,99519.50
2022-11-06T22:51:54.782Z,99527.22
2022-11-06T22:54:21.371Z,99525.75
2022-11-06T22:56:54.843Z,99539.16
2022-11-06T22:59:21.601Z,99551.28
2022-11-06T23:01:48.063Z,99550.59
2022-11-06T23:04:15.020Z,99546.53
2022-11-06T23:06:42.597Z,99563.69
2022-11-06T23:09:09.022Z,99564.69
2022-11-06T23:11:35.466Z,99567.22
2022-11-06T23:14:07.448Z,99579.09
2022-11-06T23:16:53.900Z,99571.34
2022-11-06T23:19:24.560Z,99571.16
2022-11-06T23:21:50.945Z,99577.53
2022-11-06T23:24:17.476Z,99579.91
2022-11-06T23:26:44.287Z,99574.34
2022-11-06T23:29:10.935Z,99591.09
2022-11-06T23:31:37.342Z,99581.75
2022-11-06T23:34:03.903Z,99585.41
2022-11-06T23:36:30.333Z,99581.50
2022-11-06T23:38:56.662Z,99592.00
2022-11-06T23:41:41.856Z,99594.06
2022-11-06T23:44:30.329Z,99594.22
2022-11-06T23:46:57.528Z,99595.38
2022-11-06T23:49:24.256Z,99595.38
2022-11-06T23:51:50.721Z,99602.72
2022-11-06T23:54:18.469Z,99605.69
2022-11-06T23:56:44.861Z,99600.03
2022-11-06T23:59:11.809Z,99606.63
